Date,TemperatureHighF,TemperatureAvgF,TemperatureLowF,DewpointHighF,DewpointAvgF,DewpointLowF,HumidityHigh,HumidityAvg,HumidityLow,PressureMaxIn,PressureMinIn,WindSpeedMaxMPH,WindSpeedAvgMPH,GustSpeedMaxMPH,PrecipitationSumIn
2013-4-1,45.0,42.4,40.0,40.0,38.6,37.0,90,86,81,30.00,29.96,18,13,32,0.29
2013-4-5,52.0,51.3,49.0,44.0,43.1,43.0,81,74,72,30.00,29.99,19,18,27,0.00
2013-4-7,53.0,51.8,51.0,36.0,35.9,35.0,57,55,51,29.83,29.82,21,20,42,0.00
2013-4-8,39.0,35.7,31.0,36.0,32.2,26.0,95,87,75,29.78,29.57,20,10,52,0.29
2013-4-9,49.0,41.7,35.0,30.0,26.1,22.0,72,55,35,30.03,29.76,20,13,37,0.07
2013-4-10,63.0,52.4,40.0,37.0,24.8,15.0,45,34,22,30.13,30.02,17,7,40,0.01
2013-4-11,61.0,55.7,51.0,43.0,39.3,31.0,72,55,38,30.03,29.77,17,12,34,0.00
2013-4-12,71.0,58.8,50.0,46.0,40.3,32.0,73,52,26,29.88,29.76,16,8,25,0.00
2013-4-13,64.0,58.9,53.0,42.0,38.1,30.0,64,47,28,29.88,29.73,19,12,37,0.00
2013-4-14,56.0,52.4,48.0,43.0,36.9,29.0,82,56,44,29.76,29.66,21,13,52,0.00
2013-4-15,49.0,43.9,36.0,39.0,35.7,28.0,93,73,58,29.76,29.65,19,11,41,0.00
2013-4-16,42.0,35.1,29.0,29.0,25.5,20.0,89,69,46,29.89,29.67,18,11,43,0.00
2013-4-17,47.0,40.3,32.0,26.0,20.2,15.0,62,45,27,30.12,29.89,15,8,30,0.00
2013-4-18,59.0,48.5,38.0,23.0,13.0,8.0,34,25,15,30.22,30.12,8,4,19,0.00
2013-4-19,66.0,54.3,42.0,30.0,17.2,9.0,38,24,12,30.20,30.03,19,6,28,0.00
2013-4-20,72.0,62.3,54.0,43.0,31.8,22.0,49,34,16,30.05,29.98,18,9,33,0.00
2013-4-21,75.0,64.7,56.0,37.0,24.2,-5.0,38,23,5,30.04,29.97,23,8,37,0.00
2013-4-22,69.0,64.0,59.0,36.0,29.4,3.0,40,28,9,29.99,29.84,27,17,44,0.00
2013-4-23,71.0,61.5,53.0,40.0,25.1,15.0,50,27,12,29.99,29.83,27,9,46,0.00
2013-4-24,71.0,60.1,48.0,42.0,30.0,20.0,79,34,15,29.91,29.81,12,6,30,0.00
2013-4-25,65.0,57.1,50.0,44.0,40.3,32.0,68,54,40,30.05,29.84,20,11,31,0.00
2013-4-26,74.0,61.0,52.0,48.0,38.6,17.0,66,47,12,30.16,30.04,20,11,30,0.00
2013-4-30,71.0,64.5,58.0,43.0,40.0,32.0,50,41,28,29.81,29.74,27,17,46,0.00